sensor_id;sensor_type;location;lat;lon;timestamp;temperature;humidity
25346;DHT22;13300;51.032;3.710;2022-11-15T00:01:24;11.70;99.90
25346;DHT22;13300;51.032;3.710;2022-11-15T00:03:55;11.80;99.90
25346;DHT22;13300;51.032;3.710;2022-11-15T00:06:23;11.80;99.90
25346;DHT22;13300;51.032;3.710;2022-11-15T00:09:09;11.80;99.90
25346;DHT22;13300;51.032;3.710;2022-11-15T00:21:57;12.10;99.90
25346;DHT22;13300;51.032;3.710;2022-11-15T00:24:52;12.10;99.90
25346;DHT22;13300;51.032;3.710;2022-11-15T00:27:36;12.10;99.90
25346;DHT22;13300;51.032;3.710;2022-11-15T00:30:04;12.00;99.90
25346;DHT22;13300;51.032;3.710;2022-11-15T00:32:35;12.10;99.90
25346;DHT22;13300;51.032;3.710;2022-11-15T00:35:11;12.00;99.90
25346;DHT22;13300;51.032;3.710;2022-11-15T00:37:39;12.00;99.90
25346;DHT22;13300;51.032;3.710;2022-11-15T00:40:10;11.90;99.90
25346;DHT22;13300;51.032;3.710;2022-11-15T00:42:41;11.90;99.90
25346;DHT22;13300;51.032;3.710;2022-11-15T00:45:25;12.10;99.90
25346;DHT22;13300;51.032;3.710;2022-11-15T00:48:02;12.20;99.90
25346;DHT22;13300;51.032;3.710;2022-11-15T00:50:34;12.10;99.90
25346;DHT22;13300;51.032;3.710;2022-11-15T00:53:19;12.10;99.90
25346;DHT22;13300;51.032;3.710;2022-11-15T00:55:57;12.00;99.90
25346;DHT22;13300;51.032;3.710;2022-11-15T00:58:25;12.10;99.90
25346;DHT22;13300;51.032;3.710;2022-11-15T01:03:35;11.90;99.90
25346;DHT22;13300;51.032;3.710;2022-11-15T01:06:17;11.90;99.90
25346;DHT22;13300;51.032;3.710;2022-11-15T01:11:15;12.00;99.90
25346;DHT22;13300;51.032;3.710;2022-11-15T01:13:44;12.10;99.90
25346;DHT22;13300;51.032;3.710;2022-11-15T01:16:14;12.00;99.90
25346;DHT22;13300;51.032;3.710;2022-11-15T01:18:42;12.10;99.90
25346;DHT22;13300;51.032;3.710;2022-11-15T01:21:16;12.10;99.90
25346;DHT22;13300;51.032;3.710;2022-11-15T01:23:56;12.20;99.90
25346;DHT22;13300;51.032;3.710;2022-11-15T01:26:24;12.20;99.90
25346;DHT22;13300;51.032;3.710;2022-11-15T01:28:55;12.00;99.90
25346;DHT22;13300;51.032;3.710;2022-11-15T01:31:29;12.00;99.90
25346;DHT22;13300;51.032;3.710;2022-11-15T01:34:07;12.10;99.90
25346;DHT22;13300;51.032;3.710;2022-11-15T01:37:00;12.10;99.90
25346;DHT22;13300;51.032;3.710;2022-11-15T01:39:29;11.90;99.90
25346;DHT22;13300;51.032;3.710;2022-11-15T01:41:59;12.00;99.90
25346;DHT22;13300;51.032;3.710;2022-11-15T01:47:04;12.00;99.90
25346;DHT22;13300;51.032;3.710;2022-11-15T01:49:37;12.10;99.90
25346;DHT22;13300;51.032;3.710;2022-11-15T01:52:09;12.10;99.90
25346;DHT22;13300;51.032;3.710;2022-11-15T01:54:38;12.00;99.90
25346;DHT22;13300;51.032;3.710;2022-11-15T01:57:06;12.00;99.90
25346;DHT22;13300;51.032;3.710;2022-11-15T01:59:32;12.00;99.90
25346;DHT22;13300;51.032;3.710;2022-11-15T02:02:01;12.00;99.90
25346;DHT22;13300;51.032;3.710;2022-11-15T02:04:28;12.00;99.90
25346;DHT22;13300;51.032;3.710;2022-11-15T02:06:57;11.90;99.90
25346;DHT22;13300;51.032;3.710;2022-11-15T02:09:31;11.90;99.90
25346;DHT22;13300;51.032;3.710;2022-11-15T02:11:57;11.80;99.90
25346;DHT22;13300;51.032;3.710;2022-11-15T02:14:25;11.90;99.90
25346;DHT22;13300;51.032;3.710;2022-11-15T02:35:37;11.80;99.90
25346;DHT22;13300;51.032;3.710;2022-11-15T02:41:04;11.70;99.90
25346;DHT22;13300;51.032;3.710;2022-11-15T02:44:07;11.80;99.90
25346;DHT22;13300;51.032;3.710;2022-11-15T02:49:26;11.70;99.90
25346;DHT22;13300;51.032;3.710;2022-11-15T02:51:55;11.60;99.90
25346;DHT22;13300;51.032;3.710;2022-11-15T02:54:26;11.60;99.90
25346;DHT22;13300;51.032;3.710;2022-11-15T02:56:54;11.70;99.90
25346;DHT22;13300;51.032;3.710;2022-11-15T02:59:24;11.70;99.90
25346;DHT22;13300;51.032;3.710;2022-11-15T03:07:18;11.70;99.90
25346;DHT22;13300;51.032;3.710;2022-11-15T03:10:00;11.70;99.90
25346;DHT22;13300;51.032;3.710;2022-11-15T03:12:47;11.70;99.90
25346;DHT22;13300;51.032;3.710;2022-11-15T03:15:24;11.60;99.90
25346;DHT22;13300;51.032;3.710;2022-11-15T03:18:02;11.80;99.90
25346;DHT22;13300;51.032;3.710;2022-11-15T03:20:32;11.70;99.90
25346;DHT22;13300;51.032;3.710;2022-11-15T03:23:05;11.60;99.90
25346;DHT22;13300;51.032;3.710;2022-11-15T03:25:41;11.60;99.90
25346;DHT22;13300;51.032;3.710;2022-11-15T03:31:08;11.50;99.90
25346;DHT22;13300;51.032;3.710;2022-11-15T03:33:55;11.60;99.90
25346;DHT22;13300;51.032;3.710;2022-11-15T03:36:25;11.50;99.90
25346;DHT22;13300;51.032;3.710;2022-11-15T03:38:56;11.50;99.90
25346;DHT22;13300;51.032;3.710;2022-11-15T03:41:26;11.40;99.90
25346;DHT22;13300;51.032;3.710;2022-11-15T03:43:56;11.30;99.90
25346;DHT22;13300;51.032;3.710;2022-11-15T03:46:31;11.10;99.90
25346;DHT22;13300;51.032;3.710;2022-11-15T03:49:20;11.20;99.90
25346;DHT22;13300;51.032;3.710;2022-11-15T03:51:57;11.10;99.90
25346;DHT22;13300;51.032;3.710;2022-11-15T03:54:23;11.10;99.90
25346;DHT22;13300;51.032;3.710;2022-11-15T03:56:51;11.10;99.90
25346;DHT22;13300;51.032;3.710;2022-11-15T03:59:19;11.10;99.90
25346;DHT22;13300;51.032;3.710;2022-11-15T04:01:48;11.00;99.90
25346;DHT22;13300;51.032;3.710;2022-11-15T04:04:16;10.90;99.90
25346;DHT22;13300;51.032;3.710;2022-11-15T04:06:49;11.00;99.90
25346;DHT22;13300;51.032;3.710;2022-11-15T04:09:28;11.20;99.90
25346;DHT22;13300;51.032;3.710;2022-11-15T04:11:57;11.00;99.90
25346;DHT22;13300;51.032;3.710;2022-11-15T04:14:25;10.90;99.90
25346;DHT22;13300;51.032;3.710;2022-11-15T04:16:56;10.90;99.90
25346;DHT22;13300;51.032;3.710;2022-11-15T04:19:34;10.80;99.90
25346;DHT22;13300;51.032;3.710;2022-11-15T04:22:26;10.60;99.90
25346;DHT22;13300;51.032;3.710;2022-11-15T04:25:10;10.70;99.90
25346;DHT22;13300;51.032;3.710;2022-11-15T04:27:36;10.70;99.90
25346;DHT22;13300;51.032;3.710;2022-11-15T04:30:05;10.60;99.90
25346;DHT22;13300;51.032;3.710;2022-11-15T04:32:33;10.80;99.90
25346;DHT22;13300;51.032;3.710;2022-11-15T04:35:00;10.60;99.90
25346;DHT22;13300;51.032;3.710;2022-11-15T04:37:28;10.60;99.90
25346;DHT22;13300;51.032;3.710;2022-11-15T04:39:56;10.60;99.90
25346;DHT22;13300;51.032;3.710;2022-11-15T04:42:25;10.50;99.90
25346;DHT22;13300;51.032;3.710;2022-11-15T04:44:52;10.40;99.90
25346;DHT22;13300;51.032;3.710;2022-11-15T04:47:24;10.40;99.90
25346;DHT22;13300;51.032;3.710;2022-11-15T04:50:05;10.30;99.90
25346;DHT22;13300;51.032;3.710;2022-11-15T04:52:50;10.30;99.90
25346;DHT22;13300;51.032;3.710;2022-11-15T04:55:18;10.20;99.90
25346;DHT22;13300;51.032;3.710;2022-11-15T04:57:57;10.10;99.90
25346;DHT22;13300;51.032;3.710;2022-11-15T05:00:26;10.20;99.90
25346;DHT22;13300;51.032;3.710;2022-11-15T05:02:55;10.20;99.90
25346;DHT22;13300;51.032;3.710;2022-11-15T05:05:39;10.20;99.90
25346;DHT22;13300;51.032;3.710;2022-11-15T05:08:05;10.20;99.90
25346;DHT22;13300;51.032;3.710;2022-11-15T05:10:33;10.20;99.90
25346;DHT22;13300;51.032;3.710;2022-11-15T05:12:59;10.00;99.90
25346;DHT22;13300;51.032;3.710;2022-11-15T05:15:27;10.20;99.90
25346;DHT22;13300;51.032;3.710;2022-11-15T05:18:09;10.20;99.90
25346;DHT22;13300;51.032;3.710;2022-11-15T05:21:02;10.00;99.90
25346;DHT22;13300;51.032;3.710;2022-11-15T05:23:33;9.90;99.90
25346;DHT22;13300;51.032;3.710;2022-11-15T05:26:10;10.00;99.90
25346;DHT22;13300;51.032;3.710;2022-11-15T05:28:51;10.00;99.90
25346;DHT22;13300;51.032;3.710;2022-11-15T05:31:21;9.80;99.90
25346;DHT22;13300;51.032;3.710;2022-11-15T05:46:46;9.80;99.90
25346;DHT22;13300;51.032;3.710;2022-11-15T05:49:15;9.80;99.90
25346;DHT22;13300;51.032;3.710;2022-11-15T05:51:46;9.80;99.90
25346;DHT22;13300;51.032;3.710;2022-11-15T05:54:12;9.80;99.90
25346;DHT22;13300;51.032;3.710;2022-11-15T05:56:38;9.80;99.90
25346;DHT22;13300;51.032;3.710;2022-11-15T05:59:10;9.70;99.90
25346;DHT22;13300;51.032;3.710;2022-11-15T06:01:36;9.70;99.90
25346;DHT22;13300;51.032;3.710;2022-11-15T06:04:05;9.60;99.90
25346;DHT22;13300;51.032;3.710;2022-11-15T06:06:33;9.50;99.90
25346;DHT22;13300;51.032;3.710;2022-11-15T06:08:59;9.60;99.90
25346;DHT22;13300;51.032;3.710;2022-11-15T06:11:27;9.70;99.90
25346;DHT22;13300;51.032;3.710;2022-11-15T06:13:53;9.50;99.90
25346;DHT22;13300;51.032;3.710;2022-11-15T06:16:19;9.50;99.90
25346;DHT22;13300;51.032;3.710;2022-11-15T06:18:44;9.50;99.90
25346;DHT22;13300;51.032;3.710;2022-11-15T06:21:10;9.40;99.90
25346;DHT22;13300;51.032;3.710;2022-11-15T06:23:35;9.40;99.90
25346;DHT22;13300;51.032;3.710;2022-11-15T06:26:02;9.60;99.90
25346;DHT22;13300;51.032;3.710;2022-11-15T06:28:34;9.50;99.90
25346;DHT22;13300;51.032;3.710;2022-11-15T06:31:06;9.50;99.90
25346;DHT22;13300;51.032;3.710;2022-11-15T06:33:35;9.60;99.90
25346;DHT22;13300;51.032;3.710;2022-11-15T06:36:01;9.40;99.90
25346;DHT22;13300;51.032;3.710;2022-11-15T06:38:29;9.30;99.90
25346;DHT22;13300;51.032;3.710;2022-11-15T06:41:00;9.40;99.90
25346;DHT22;13300;51.032;3.710;2022-11-15T06:43:29;9.40;99.90
25346;DHT22;13300;51.032;3.710;2022-11-15T06:45:58;9.40;99.90
25346;DHT22;13300;51.032;3.710;2022-11-15T06:48:36;9.40;99.90
25346;DHT22;13300;51.032;3.710;2022-11-15T06:51:04;9.40;99.90
25346;DHT22;13300;51.032;3.710;2022-11-15T06:53:30;9.40;99.90
25346;DHT22;13300;51.032;3.710;2022-11-15T06:56:00;9.40;99.90
25346;DHT22;13300;51.032;3.710;2022-11-15T06:58:28;9.50;99.90
25346;DHT22;13300;51.032;3.710;2022-11-15T07:00:57;9.60;99.90
25346;DHT22;13300;51.032;3.710;2022-11-15T07:03:36;9.50;99.90
25346;DHT22;13300;51.032;3.710;2022-11-15T07:06:02;9.50;99.90
25346;DHT22;13300;51.032;3.710;2022-11-15T07:08:28;9.50;99.90
25346;DHT22;13300;51.032;3.710;2022-11-15T07:10:54;9.50;99.90
25346;DHT22;13300;51.032;3.710;2022-11-15T07:13:20;9.60;99.90
25346;DHT22;13300;51.032;3.710;2022-11-15T07:15:45;9.50;99.90
25346;DHT22;13300;51.032;3.710;2022-11-15T07:18:11;9.60;99.90
25346;DHT22;13300;51.032;3.710;2022-11-15T07:20:37;9.50;99.90
25346;DHT22;13300;51.032;3.710;2022-11-15T07:23:03;9.60;99.90
25346;DHT22;13300;51.032;3.710;2022-11-15T07:25:29;9.70;99.90
25346;DHT22;13300;51.032;3.710;2022-11-15T07:27:57;9.70;99.90
25346;DHT22;13300;51.032;3.710;2022-11-15T07:30:24;9.70;99.90
25346;DHT22;13300;51.032;3.710;2022-11-15T07:32:53;9.80;99.90
25346;DHT22;13300;51.032;3.710;2022-11-15T07:35:19;9.90;99.90
25346;DHT22;13300;51.032;3.710;2022-11-15T07:37:52;9.90;99.90
25346;DHT22;13300;51.032;3.710;2022-11-15T07:40:18;10.00;99.90
25346;DHT22;13300;51.032;3.710;2022-11-15T07:42:43;10.00;99.90
25346;DHT22;13300;51.032;3.710;2022-11-15T07:45:19;10.20;99.90
25346;DHT22;13300;51.032;3.710;2022-11-15T07:47:48;10.30;99.90
25346;DHT22;13300;51.032;3.710;2022-11-15T07:50:14;10.40;99.90
25346;DHT22;13300;51.032;3.710;2022-11-15T07:52:40;10.60;99.90
25346;DHT22;13300;51.032;3.710;2022-11-15T07:55:05;10.50;99.90
25346;DHT22;13300;51.032;3.710;2022-11-15T07:57:39;10.50;99.90
25346;DHT22;13300;51.032;3.710;2022-11-15T08:00:05;10.70;99.90
25346;DHT22;13300;51.032;3.710;2022-11-15T08:02:31;10.70;99.90
25346;DHT22;13300;51.032;3.710;2022-11-15T08:04:57;10.60;99.90
25346;DHT22;13300;51.032;3.710;2022-11-15T08:07:23;10.60;99.90
25346;DHT22;13300;51.032;3.710;2022-11-15T08:09:48;10.50;99.90
25346;DHT22;13300;51.032;3.710;2022-11-15T08:12:14;10.50;99.90
25346;DHT22;13300;51.032;3.710;2022-11-15T08:14:42;10.70;99.90
25346;DHT22;13300;51.032;3.710;2022-11-15T08:17:08;11.20;99.90
25346;DHT22;13300;51.032;3.710;2022-11-15T08:19:34;11.20;99.90
25346;DHT22;13300;51.032;3.710;2022-11-15T08:22:00;11.30;99.90
25346;DHT22;13300;51.032;3.710;2022-11-15T08:24:26;11.70;99.90
25346;DHT22;13300;51.032;3.710;2022-11-15T08:26:53;11.90;99.90
25346;DHT22;13300;51.032;3.710;2022-11-15T08:29:18;12.10;99.90
25346;DHT22;13300;51.032;3.710;2022-11-15T08:31:47;12.20;99.90
25346;DHT22;13300;51.032;3.710;2022-11-15T08:34:12;12.40;99.90
25346;DHT22;13300;51.032;3.710;2022-11-15T08:36:38;12.00;99.90
25346;DHT22;13300;51.032;3.710;2022-11-15T08:39:04;12.20;99.90
25346;DHT22;13300;51.032;3.710;2022-11-15T08:41:33;12.40;99.90
25346;DHT22;13300;51.032;3.710;2022-11-15T08:44:02;12.40;99.90
25346;DHT22;13300;51.032;3.710;2022-11-15T08:46:31;12.00;99.90
25346;DHT22;13300;51.032;3.710;2022-11-15T08:48:58;11.80;99.90
25346;DHT22;13300;51.032;3.710;2022-11-15T08:51:23;12.70;99.90
25346;DHT22;13300;51.032;3.710;2022-11-15T08:53:51;13.60;99.90
25346;DHT22;13300;51.032;3.710;2022-11-15T08:56:21;13.80;99.90
25346;DHT22;13300;51.032;3.710;2022-11-15T08:58:48;14.30;99.90
25346;DHT22;13300;51.032;3.710;2022-11-15T09:01:18;14.60;99.90
25346;DHT22;13300;51.032;3.710;2022-11-15T09:03:43;15.20;99.90
25346;DHT22;13300;51.032;3.710;2022-11-15T09:06:11;14.70;99.90
25346;DHT22;13300;51.032;3.710;2022-11-15T09:08:37;14.70;99.90
25346;DHT22;13300;51.032;3.710;2022-11-15T09:11:04;14.70;99.90
25346;DHT22;13300;51.032;3.710;2022-11-15T09:13:30;14.70;99.90
25346;DHT22;13300;51.032;3.710;2022-11-15T09:15:57;15.00;99.90
25346;DHT22;13300;51.032;3.710;2022-11-15T09:18:25;15.10;99.90
25346;DHT22;13300;51.032;3.710;2022-11-15T09:20:54;14.30;99.90
25346;DHT22;13300;51.032;3.710;2022-11-15T09:23:30;14.20;99.90
25346;DHT22;13300;51.032;3.710;2022-11-15T09:26:02;14.50;99.90
25346;DHT22;13300;51.032;3.710;2022-11-15T09:28:31;15.10;99.90
25346;DHT22;13300;51.032;3.710;2022-11-15T09:31:03;15.50;99.90
25346;DHT22;13300;51.032;3.710;2022-11-15T09:33:29;15.70;99.90
25346;DHT22;13300;51.032;3.710;2022-11-15T09:35:59;15.30;99.90
25346;DHT22;13300;51.032;3.710;2022-11-15T09:38:25;15.20;99.90
25346;DHT22;13300;51.032;3.710;2022-11-15T09:40:58;15.90;99.90
25346;DHT22;13300;51.032;3.710;2022-11-15T09:43:32;15.90;99.90
25346;DHT22;13300;51.032;3.710;2022-11-15T09:48:53;15.30;99.90
25346;DHT22;13300;51.032;3.710;2022-11-15T09:51:47;15.10;99.90
25346;DHT22;13300;51.032;3.710;2022-11-15T09:56:55;14.70;99.90
25346;DHT22;13300;51.032;3.710;2022-11-15T10:02:31;15.10;99.90
25346;DHT22;13300;51.032;3.710;2022-11-15T10:05:09;15.00;99.90
25346;DHT22;13300;51.032;3.710;2022-11-15T10:07:40;14.70;99.90
25346;DHT22;13300;51.032;3.710;2022-11-15T10:10:15;14.20;99.90
25346;DHT22;13300;51.032;3.710;2022-11-15T10:12:45;14.00;99.90
25346;DHT22;13300;51.032;3.710;2022-11-15T10:15:33;13.70;99.90
25346;DHT22;13300;51.032;3.710;2022-11-15T10:18:06;13.60;99.90
25346;DHT22;13300;51.032;3.710;2022-11-15T10:23:23;13.40;99.90
25346;DHT22;13300;51.032;3.710;2022-11-15T10:26:14;13.40;99.90
25346;DHT22;13300;51.032;3.710;2022-11-15T10:28:41;14.00;99.90
25346;DHT22;13300;51.032;3.710;2022-11-15T10:31:20;14.10;99.90
25346;DHT22;13300;51.032;3.710;2022-11-15T10:34:13;14.10;99.90
25346;DHT22;13300;51.032;3.710;2022-11-15T10:37:08;14.40;99.90
25346;DHT22;13300;51.032;3.710;2022-11-15T10:39:34;14.70;99.90
25346;DHT22;13300;51.032;3.710;2022-11-15T10:42:16;15.30;99.90
25346;DHT22;13300;51.032;3.710;2022-11-15T10:44:43;15.80;99.90
25346;DHT22;13300;51.032;3.710;2022-11-15T10:50:00;16.70;99.90
25346;DHT22;13300;51.032;3.710;2022-11-15T10:52:26;16.50;99.90
25346;DHT22;13300;51.032;3.710;2022-11-15T10:55:31;15.90;99.90
25346;DHT22;13300;51.032;3.710;2022-11-15T10:57:52;15.70;99.90
25346;DHT22;13300;51.032;3.710;2022-11-15T11:00:45;15.20;99.90
25346;DHT22;13300;51.032;3.710;2022-11-15T11:06:25;16.00;99.90
25346;DHT22;13300;51.032;3.710;2022-11-15T11:08:59;15.80;99.90
25346;DHT22;13300;51.032;3.710;2022-11-15T11:11:44;15.90;99.90
25346;DHT22;13300;51.032;3.710;2022-11-15T11:14:53;15.70;99.90
25346;DHT22;13300;51.032;3.710;2022-11-15T11:17:18;15.20;99.90
25346;DHT22;13300;51.032;3.710;2022-11-15T11:22:26;14.80;99.90
25346;DHT22;13300;51.032;3.710;2022-11-15T11:25:05;14.70;99.90
25346;DHT22;13300;51.032;3.710;2022-11-15T11:30:31;14.00;99.90
25346;DHT22;13300;51.032;3.710;2022-11-15T11:33:20;14.00;99.90
25346;DHT22;13300;51.032;3.710;2022-11-15T11:38:50;14.00;99.90
25346;DHT22;13300;51.032;3.710;2022-11-15T11:41:50;14.10;99.90
25346;DHT22;13300;51.032;3.710;2022-11-15T11:44:24;14.10;99.90
25346;DHT22;13300;51.032;3.710;2022-11-15T11:52:38;13.60;99.90
25346;DHT22;13300;51.032;3.710;2022-11-15T12:00:52;13.60;99.90
25346;DHT22;13300;51.032;3.710;2022-11-15T12:14:32;13.60;99.90
25346;DHT22;13300;51.032;3.710;2022-11-15T12:16:59;13.50;99.90
25346;DHT22;13300;51.032;3.710;2022-11-15T12:19:26;13.50;99.90
25346;DHT22;13300;51.032;3.710;2022-11-15T12:22:03;13.50;99.90
25346;DHT22;13300;51.032;3.710;2022-11-15T12:29:49;13.50;99.90
25346;DHT22;13300;51.032;3.710;2022-11-15T12:34:58;13.60;99.90
25346;DHT22;13300;51.032;3.710;2022-11-15T12:42:40;13.50;99.90
25346;DHT22;13300;51.032;3.710;2022-11-15T12:47:53;13.50;99.90
25346;DHT22;13300;51.032;3.710;2022-11-15T12:56:50;13.60;99.90
25346;DHT22;13300;51.032;3.710;2022-11-15T13:02:17;13.40;99.90
25346;DHT22;13300;51.032;3.710;2022-11-15T13:04:49;13.40;99.90
25346;DHT22;13300;51.032;3.710;2022-11-15T13:21:00;13.50;99.90
25346;DHT22;13300;51.032;3.710;2022-11-15T13:23:26;13.30;99.90
25346;DHT22;13300;51.032;3.710;2022-11-15T13:28:47;13.40;99.90
25346;DHT22;13300;51.032;3.710;2022-11-15T13:34:30;13.50;99.90
25346;DHT22;13300;51.032;3.710;2022-11-15T13:36:59;13.40;99.90
25346;DHT22;13300;51.032;3.710;2022-11-15T13:39:30;13.40;99.90
25346;DHT22;13300;51.032;3.710;2022-11-15T13:41:59;13.30;99.90
25346;DHT22;13300;51.032;3.710;2022-11-15T13:44:29;13.20;99.90
25346;DHT22;13300;51.032;3.710;2022-11-15T13:49:39;13.20;99.90
25346;DHT22;13300;51.032;3.710;2022-11-15T13:52:06;13.20;99.90
25346;DHT22;13300;51.032;3.710;2022-11-15T13:54:42;13.30;99.90
25346;DHT22;13300;51.032;3.710;2022-11-15T13:57:24;13.30;99.90
25346;DHT22;13300;51.032;3.710;2022-11-15T14:00:00;13.30;99.90
25346;DHT22;13300;51.032;3.710;2022-11-15T14:02:31;13.10;99.90
25346;DHT22;13300;51.032;3.710;2022-11-15T14:05:17;13.00;99.90
25346;DHT22;13300;51.032;3.710;2022-11-15T14:07:59;13.00;99.90
25346;DHT22;13300;51.032;3.710;2022-11-15T14:10:36;12.90;99.90
25346;DHT22;13300;51.032;3.710;2022-11-15T14:13:11;12.80;99.90
25346;DHT22;13300;51.032;3.710;2022-11-15T14:19:03;12.70;99.90
25346;DHT22;13300;51.032;3.710;2022-11-15T14:21:32;12.50;99.90
25346;DHT22;13300;51.032;3.710;2022-11-15T14:27:25;12.40;99.90
25346;DHT22;13300;51.032;3.710;2022-11-15T14:30:16;12.30;99.90
25346;DHT22;13300;51.032;3.710;2022-11-15T14:36:14;12.20;99.90
25346;DHT22;13300;51.032;3.710;2022-11-15T14:39:22;12.10;99.90
25346;DHT22;13300;51.032;3.710;2022-11-15T14:42:49;12.00;99.90
25346;DHT22;13300;51.032;3.710;2022-11-15T14:45:21;11.80;99.90
25346;DHT22;13300;51.032;3.710;2022-11-15T14:47:54;11.80;99.90
25346;DHT22;13300;51.032;3.710;2022-11-15T14:50:25;11.90;99.90
25346;DHT22;13300;51.032;3.710;2022-11-15T14:52:53;11.80;99.90
25346;DHT22;13300;51.032;3.710;2022-11-15T14:55:37;11.70;99.90
25346;DHT22;13300;51.032;3.710;2022-11-15T14:58:03;11.70;99.90
25346;DHT22;13300;51.032;3.710;2022-11-15T15:00:30;11.70;99.90
25346;DHT22;13300;51.032;3.710;2022-11-15T15:02:55;11.70;99.90
25346;DHT22;13300;51.032;3.710;2022-11-15T15:05:25;11.60;99.90
25346;DHT22;13300;51.032;3.710;2022-11-15T15:07:50;11.50;99.90
25346;DHT22;13300;51.032;3.710;2022-11-15T15:10:19;11.50;99.90
25346;DHT22;13300;51.032;3.710;2022-11-15T15:12:45;11.60;99.90
25346;DHT22;13300;51.032;3.710;2022-11-15T15:15:15;11.60;99.90
25346;DHT22;13300;51.032;3.710;2022-11-15T15:17:41;11.60;99.90
25346;DHT22;13300;51.032;3.710;2022-11-15T15:20:06;11.60;99.90
25346;DHT22;13300;51.032;3.710;2022-11-15T15:22:32;11.50;99.90
25346;DHT22;13300;51.032;3.710;2022-11-15T15:24:58;11.50;99.90
25346;DHT22;13300;51.032;3.710;2022-11-15T15:27:23;11.50;99.90
25346;DHT22;13300;51.032;3.710;2022-11-15T15:29:49;11.50;99.90
25346;DHT22;13300;51.032;3.710;2022-11-15T15:32:14;11.60;99.90
25346;DHT22;13300;51.032;3.710;2022-11-15T15:34:40;11.70;99.90
25346;DHT22;13300;51.032;3.710;2022-11-15T15:37:07;11.60;99.90
25346;DHT22;13300;51.032;3.710;2022-11-15T15:39:32;11.70;99.90
25346;DHT22;13300;51.032;3.710;2022-11-15T15:41:58;11.60;99.90
25346;DHT22;13300;51.032;3.710;2022-11-15T15:44:23;11.70;99.90
25346;DHT22;13300;51.032;3.710;2022-11-15T15:46:49;11.70;99.90
25346;DHT22;13300;51.032;3.710;2022-11-15T15:49:15;11.70;99.90
25346;DHT22;13300;51.032;3.710;2022-11-15T15:51:40;11.80;99.90
25346;DHT22;13300;51.032;3.710;2022-11-15T15:54:06;11.90;99.90
25346;DHT22;13300;51.032;3.710;2022-11-15T15:56:31;11.80;99.90
25346;DHT22;13300;51.032;3.710;2022-11-15T15:58:57;11.80;99.90
25346;DHT22;13300;51.032;3.710;2022-11-15T16:01:23;11.80;99.90
25346;DHT22;13300;51.032;3.710;2022-11-15T16:03:49;11.80;99.90
25346;DHT22;13300;51.032;3.710;2022-11-15T16:06:35;11.80;99.90
25346;DHT22;13300;51.032;3.710;2022-11-15T16:09:01;11.90;99.90
25346;DHT22;13300;51.032;3.710;2022-11-15T16:11:27;11.90;99.90
25346;DHT22;13300;51.032;3.710;2022-11-15T16:13:52;11.80;99.90
25346;DHT22;13300;51.032;3.710;2022-11-15T16:16:18;11.90;99.90
25346;DHT22;13300;51.032;3.710;2022-11-15T16:18:44;11.90;99.90
25346;DHT22;13300;51.032;3.710;2022-11-15T16:21:10;11.90;99.90
25346;DHT22;13300;51.032;3.710;2022-11-15T16:23:36;11.90;99.90
25346;DHT22;13300;51.032;3.710;2022-11-15T16:26:01;11.90;99.90
25346;DHT22;13300;51.032;3.710;2022-11-15T16:28:29;11.90;99.90
25346;DHT22;13300;51.032;3.710;2022-11-15T16:31:02;11.90;99.90
25346;DHT22;13300;51.032;3.710;2022-11-15T16:33:28;11.90;99.90
25346;DHT22;13300;51.032;3.710;2022-11-15T16:35:53;12.00;99.90
25346;DHT22;13300;51.032;3.710;2022-11-15T16:38:19;12.00;99.90
25346;DHT22;13300;51.032;3.710;2022-11-15T16:40:44;12.00;99.90
25346;DHT22;13300;51.032;3.710;2022-11-15T16:43:10;12.00;99.90
25346;DHT22;13300;51.032;3.710;2022-11-15T16:45:36;12.00;99.90
25346;DHT22;13300;51.032;3.710;2022-11-15T16:48:02;12.00;99.90
25346;DHT22;13300;51.032;3.710;2022-11-15T16:50:28;12.00;99.90
25346;DHT22;13300;51.032;3.710;2022-11-15T16:52:55;12.00;99.90
25346;DHT22;13300;51.032;3.710;2022-11-15T16:55:22;12.00;99.90
25346;DHT22;13300;51.032;3.710;2022-11-15T16:57:48;12.00;99.90
25346;DHT22;13300;51.032;3.710;2022-11-15T17:00:14;12.10;99.90
25346;DHT22;13300;51.032;3.710;2022-11-15T17:02:41;12.10;99.90
25346;DHT22;13300;51.032;3.710;2022-11-15T17:05:07;12.10;99.90
25346;DHT22;13300;51.032;3.710;2022-11-15T17:07:33;12.10;99.90
25346;DHT22;13300;51.032;3.710;2022-11-15T17:09:58;12.10;99.90
25346;DHT22;13300;51.032;3.710;2022-11-15T17:12:24;12.00;99.90
25346;DHT22;13300;51.032;3.710;2022-11-15T17:14:49;12.00;99.90
25346;DHT22;13300;51.032;3.710;2022-11-15T17:17:15;12.00;99.90
25346;DHT22;13300;51.032;3.710;2022-11-15T17:19:40;12.00;99.90
25346;DHT22;13300;51.032;3.710;2022-11-15T17:22:06;12.00;99.90
25346;DHT22;13300;51.032;3.710;2022-11-15T17:24:32;12.00;99.90
25346;DHT22;13300;51.032;3.710;2022-11-15T17:26:57;12.00;99.90
25346;DHT22;13300;51.032;3.710;2022-11-15T17:29:23;12.00;99.90
25346;DHT22;13300;51.032;3.710;2022-11-15T17:31:49;12.10;99.90
25346;DHT22;13300;51.032;3.710;2022-11-15T17:34:14;12.10;99.90
25346;DHT22;13300;51.032;3.710;2022-11-15T17:36:40;12.00;99.90
25346;DHT22;13300;51.032;3.710;2022-11-15T17:39:05;12.10;99.90
25346;DHT22;13300;51.032;3.710;2022-11-15T17:41:34;12.10;99.90
25346;DHT22;13300;51.032;3.710;2022-11-15T17:43:59;12.20;99.90
25346;DHT22;13300;51.032;3.710;2022-11-15T17:49:20;12.20;99.90
25346;DHT22;13300;51.032;3.710;2022-11-15T17:52:07;12.20;99.90
25346;DHT22;13300;51.032;3.710;2022-11-15T17:54:59;12.10;99.90
25346;DHT22;13300;51.032;3.710;2022-11-15T17:57:27;12.20;99.90
25346;DHT22;13300;51.032;3.710;2022-11-15T17:59:52;12.20;99.90
25346;DHT22;13300;51.032;3.710;2022-11-15T18:05:05;12.20;99.90
25346;DHT22;13300;51.032;3.710;2022-11-15T18:07:39;12.20;99.90
25346;DHT22;13300;51.032;3.710;2022-11-15T18:10:12;12.20;99.90
25346;DHT22;13300;51.032;3.710;2022-11-15T18:12:38;12.00;99.90
25346;DHT22;13300;51.032;3.710;2022-11-15T18:15:04;12.20;99.90
25346;DHT22;13300;51.032;3.710;2022-11-15T18:17:30;12.00;99.90
25346;DHT22;13300;51.032;3.710;2022-11-15T18:19:56;12.20;99.90
25346;DHT22;13300;51.032;3.710;2022-11-15T18:22:21;12.20;99.90
25346;DHT22;13300;51.032;3.710;2022-11-15T18:24:47;12.10;99.90
25346;DHT22;13300;51.032;3.710;2022-11-15T18:27:13;12.10;99.90
25346;DHT22;13300;51.032;3.710;2022-11-15T18:29:39;12.10;99.90
25346;DHT22;13300;51.032;3.710;2022-11-15T18:32:07;12.10;99.90
25346;DHT22;13300;51.032;3.710;2022-11-15T18:34:45;12.20;99.90
25346;DHT22;13300;51.032;3.710;2022-11-15T18:37:13;12.10;99.90
25346;DHT22;13300;51.032;3.710;2022-11-15T18:39:42;12.10;99.90
25346;DHT22;13300;51.032;3.710;2022-11-15T18:42:10;12.20;99.90
25346;DHT22;13300;51.032;3.710;2022-11-15T18:44:54;12.20;99.90
25346;DHT22;13300;51.032;3.710;2022-11-15T18:52:45;12.30;99.90
25346;DHT22;13300;51.032;3.710;2022-11-15T18:55:11;12.30;99.90
25346;DHT22;13300;51.032;3.710;2022-11-15T18:57:37;12.40;99.90